sensor_id;sensor_type;location;lat;lon;timestamp;temperature;humidity
42841;DHT22;28491;46.898;7.660;2023-05-07T00:01:43;12.70;53.80
42841;DHT22;28491;46.898;7.660;2023-05-07T00:04:08;12.70;56.80
42841;DHT22;28491;46.898;7.660;2023-05-07T00:06:34;12.70;57.00
42841;DHT22;28491;46.898;7.660;2023-05-07T00:08:59;12.70;58.60
42841;DHT22;28491;46.898;7.660;2023-05-07T00:11:26;12.70;53.60
42841;DHT22;28491;46.898;7.660;2023-05-07T00:13:52;12.70;53.30
42841;DHT22;28491;46.898;7.660;2023-05-07T00:16:17;12.60;55.50
42841;DHT22;28491;46.898;7.660;2023-05-07T00:18:43;12.60;53.40
42841;DHT22;28491;46.898;7.660;2023-05-07T00:21:08;12.40;58.30
42841;DHT22;28491;46.898;7.660;2023-05-07T00:23:34;12.40;60.50
42841;DHT22;28491;46.898;7.660;2023-05-07T00:25:59;12.30;60.50
42841;DHT22;28491;46.898;7.660;2023-05-07T00:28:25;12.30;61.00
42841;DHT22;28491;46.898;7.660;2023-05-07T00:30:51;12.40;60.80
42841;DHT22;28491;46.898;7.660;2023-05-07T00:33:16;12.30;60.50
42841;DHT22;28491;46.898;7.660;2023-05-07T00:35:42;12.40;60.60
42841;DHT22;28491;46.898;7.660;2023-05-07T00:38:08;12.50;60.10
42841;DHT22;28491;46.898;7.660;2023-05-07T00:40:33;12.40;56.60
42841;DHT22;28491;46.898;7.660;2023-05-07T00:42:59;12.40;60.00
42841;DHT22;28491;46.898;7.660;2023-05-07T00:45:28;12.40;58.60
42841;DHT22;28491;46.898;7.660;2023-05-07T00:47:55;12.40;55.60
42841;DHT22;28491;46.898;7.660;2023-05-07T00:50:21;12.40;53.80
42841;DHT22;28491;46.898;7.660;2023-05-07T00:52:47;12.30;55.50
42841;DHT22;28491;46.898;7.660;2023-05-07T00:55:13;12.20;60.20
42841;DHT22;28491;46.898;7.660;2023-05-07T00:57:40;12.10;60.90
42841;DHT22;28491;46.898;7.660;2023-05-07T01:00:07;12.10;61.50
42841;DHT22;28491;46.898;7.660;2023-05-07T01:02:38;12.20;61.50
42841;DHT22;28491;46.898;7.660;2023-05-07T01:05:06;12.10;61.10
42841;DHT22;28491;46.898;7.660;2023-05-07T01:07:33;12.10;60.60
42841;DHT22;28491;46.898;7.660;2023-05-07T01:10:00;12.00;61.40
42841;DHT22;28491;46.898;7.660;2023-05-07T01:12:26;11.90;62.50
42841;DHT22;28491;46.898;7.660;2023-05-07T01:14:53;12.00;62.30
42841;DHT22;28491;46.898;7.660;2023-05-07T01:17:18;11.90;61.90
42841;DHT22;28491;46.898;7.660;2023-05-07T01:19:44;11.90;61.90
42841;DHT22;28491;46.898;7.660;2023-05-07T01:22:10;11.80;62.60
42841;DHT22;28491;46.898;7.660;2023-05-07T01:24:37;11.70;62.70
42841;DHT22;28491;46.898;7.660;2023-05-07T01:27:03;11.60;63.00
42841;DHT22;28491;46.898;7.660;2023-05-07T01:29:29;11.50;63.20
42841;DHT22;28491;46.898;7.660;2023-05-07T01:31:58;11.50;63.40
42841;DHT22;28491;46.898;7.660;2023-05-07T01:34:25;11.60;63.40
42841;DHT22;28491;46.898;7.660;2023-05-07T01:36:53;11.70;64.20
42841;DHT22;28491;46.898;7.660;2023-05-07T01:39:30;11.80;62.80
42841;DHT22;28491;46.898;7.660;2023-05-07T01:41:56;11.70;62.70
42841;DHT22;28491;46.898;7.660;2023-05-07T01:44:22;11.50;63.70
42841;DHT22;28491;46.898;7.660;2023-05-07T01:46:48;11.40;64.60
42841;DHT22;28491;46.898;7.660;2023-05-07T01:49:15;11.40;65.00
42841;DHT22;28491;46.898;7.660;2023-05-07T01:51:41;11.40;65.50
42841;DHT22;28491;46.898;7.660;2023-05-07T01:54:07;11.40;65.10
42841;DHT22;28491;46.898;7.660;2023-05-07T01:56:33;11.40;64.70
42841;DHT22;28491;46.898;7.660;2023-05-07T01:58:59;11.20;65.00
42841;DHT22;28491;46.898;7.660;2023-05-07T02:01:25;11.20;65.70
42841;DHT22;28491;46.898;7.660;2023-05-07T02:03:50;11.10;65.20
42841;DHT22;28491;46.898;7.660;2023-05-07T02:06:16;11.20;64.90
42841;DHT22;28491;46.898;7.660;2023-05-07T02:08:41;11.20;64.20
42841;DHT22;28491;46.898;7.660;2023-05-07T02:11:07;11.10;64.60
42841;DHT22;28491;46.898;7.660;2023-05-07T02:13:33;11.20;65.20
42841;DHT22;28491;46.898;7.660;2023-05-07T02:16:00;11.20;64.80
42841;DHT22;28491;46.898;7.660;2023-05-07T02:18:25;11.20;63.90
42841;DHT22;28491;46.898;7.660;2023-05-07T02:20:51;11.30;64.20
42841;DHT22;28491;46.898;7.660;2023-05-07T02:23:16;11.20;63.80
42841;DHT22;28491;46.898;7.660;2023-05-07T02:25:42;11.30;63.70
42841;DHT22;28491;46.898;7.660;2023-05-07T02:28:07;11.20;63.70
42841;DHT22;28491;46.898;7.660;2023-05-07T02:30:33;11.30;63.70
42841;DHT22;28491;46.898;7.660;2023-05-07T02:32:58;11.30;63.70
42841;DHT22;28491;46.898;7.660;2023-05-07T02:35:25;11.30;63.90
42841;DHT22;28491;46.898;7.660;2023-05-07T02:37:50;11.30;63.50
42841;DHT22;28491;46.898;7.660;2023-05-07T02:40:16;11.30;63.00
42841;DHT22;28491;46.898;7.660;2023-05-07T02:42:41;11.30;62.80
42841;DHT22;28491;46.898;7.660;2023-05-07T02:45:07;11.30;63.40
42841;DHT22;28491;46.898;7.660;2023-05-07T02:47:33;11.20;63.70
42841;DHT22;28491;46.898;7.660;2023-05-07T02:49:58;11.10;65.60
42841;DHT22;28491;46.898;7.660;2023-05-07T02:52:24;11.10;66.20
42841;DHT22;28491;46.898;7.660;2023-05-07T02:54:49;11.20;67.40
42841;DHT22;28491;46.898;7.660;2023-05-07T02:57:15;11.30;67.20
42841;DHT22;28491;46.898;7.660;2023-05-07T02:59:42;11.30;66.30
42841;DHT22;28491;46.898;7.660;2023-05-07T03:02:07;11.30;65.90
42841;DHT22;28491;46.898;7.660;2023-05-07T03:04:33;11.30;66.00
42841;DHT22;28491;46.898;7.660;2023-05-07T03:06:58;11.30;66.20
42841;DHT22;28491;46.898;7.660;2023-05-07T03:09:24;11.30;66.50
42841;DHT22;28491;46.898;7.660;2023-05-07T03:11:49;11.40;66.20
42841;DHT22;28491;46.898;7.660;2023-05-07T03:14:15;11.40;66.60
42841;DHT22;28491;46.898;7.660;2023-05-07T03:16:40;11.40;65.20
42841;DHT22;28491;46.898;7.660;2023-05-07T03:19:06;11.50;64.90
42841;DHT22;28491;46.898;7.660;2023-05-07T03:21:31;11.50;63.70
42841;DHT22;28491;46.898;7.660;2023-05-07T03:23:59;11.40;63.10
42841;DHT22;28491;46.898;7.660;2023-05-07T03:26:25;11.20;64.30
42841;DHT22;28491;46.898;7.660;2023-05-07T03:28:51;11.10;65.10
42841;DHT22;28491;46.898;7.660;2023-05-07T03:31:17;11.20;64.80
42841;DHT22;28491;46.898;7.660;2023-05-07T03:33:56;11.10;64.30
42841;DHT22;28491;46.898;7.660;2023-05-07T03:36:22;11.10;64.40
42841;DHT22;28491;46.898;7.660;2023-05-07T03:38:48;11.10;64.40
42841;DHT22;28491;46.898;7.660;2023-05-07T03:41:14;11.10;64.70
42841;DHT22;28491;46.898;7.660;2023-05-07T03:43:40;11.00;64.80
42841;DHT22;28491;46.898;7.660;2023-05-07T03:46:05;11.00;65.40
42841;DHT22;28491;46.898;7.660;2023-05-07T03:48:31;11.00;65.60
42841;DHT22;28491;46.898;7.660;2023-05-07T03:50:59;11.00;65.50
42841;DHT22;28491;46.898;7.660;2023-05-07T03:53:25;11.00;65.50
42841;DHT22;28491;46.898;7.660;2023-05-07T03:55:50;11.00;65.80
42841;DHT22;28491;46.898;7.660;2023-05-07T03:58:16;11.00;65.90
42841;DHT22;28491;46.898;7.660;2023-05-07T04:00:42;11.00;65.30
42841;DHT22;28491;46.898;7.660;2023-05-07T04:03:07;11.00;65.30
42841;DHT22;28491;46.898;7.660;2023-05-07T04:05:33;11.10;64.40
42841;DHT22;28491;46.898;7.660;2023-05-07T04:07:59;11.10;63.40
42841;DHT22;28491;46.898;7.660;2023-05-07T04:10:25;11.10;63.00
42841;DHT22;28491;46.898;7.660;2023-05-07T04:12:50;11.10;63.50
42841;DHT22;28491;46.898;7.660;2023-05-07T04:15:16;10.80;64.20
42841;DHT22;28491;46.898;7.660;2023-05-07T04:17:42;10.70;66.50
42841;DHT22;28491;46.898;7.660;2023-05-07T04:20:15;10.70;68.20
42841;DHT22;28491;46.898;7.660;2023-05-07T04:22:41;10.70;68.70
42841;DHT22;28491;46.898;7.660;2023-05-07T04:25:08;10.70;67.80
42841;DHT22;28491;46.898;7.660;2023-05-07T04:27:35;10.60;68.00
42841;DHT22;28491;46.898;7.660;2023-05-07T04:30:01;10.60;68.90
42841;DHT22;28491;46.898;7.660;2023-05-07T04:32:27;10.60;69.50
42841;DHT22;28491;46.898;7.660;2023-05-07T04:34:54;10.50;69.30
42841;DHT22;28491;46.898;7.660;2023-05-07T04:37:20;10.50;69.70
42841;DHT22;28491;46.898;7.660;2023-05-07T04:39:46;10.60;69.90
42841;DHT22;28491;46.898;7.660;2023-05-07T04:42:16;10.70;69.70
42841;DHT22;28491;46.898;7.660;2023-05-07T04:44:42;10.70;69.60
42841;DHT22;28491;46.898;7.660;2023-05-07T04:47:08;10.80;68.90
42841;DHT22;28491;46.898;7.660;2023-05-07T04:49:33;10.90;69.10
42841;DHT22;28491;46.898;7.660;2023-05-07T04:51:59;10.80;67.90
42841;DHT22;28491;46.898;7.660;2023-05-07T04:54:24;10.70;68.00
42841;DHT22;28491;46.898;7.660;2023-05-07T04:56:50;10.70;69.40
42841;DHT22;28491;46.898;7.660;2023-05-07T04:59:16;10.70;69.00
42841;DHT22;28491;46.898;7.660;2023-05-07T05:01:41;10.70;68.70
42841;DHT22;28491;46.898;7.660;2023-05-07T05:04:07;10.80;70.20
42841;DHT22;28491;46.898;7.660;2023-05-07T05:06:32;10.90;70.20
42841;DHT22;28491;46.898;7.660;2023-05-07T05:08:58;11.00;70.00
42841;DHT22;28491;46.898;7.660;2023-05-07T05:11:23;11.10;68.30
42841;DHT22;28491;46.898;7.660;2023-05-07T05:13:49;11.00;68.00
42841;DHT22;28491;46.898;7.660;2023-05-07T05:16:15;11.10;68.90
42841;DHT22;28491;46.898;7.660;2023-05-07T05:18:41;11.10;68.70
42841;DHT22;28491;46.898;7.660;2023-05-07T05:21:06;11.20;67.60
42841;DHT22;28491;46.898;7.660;2023-05-07T05:23:32;11.20;68.10
42841;DHT22;28491;46.898;7.660;2023-05-07T05:25:57;11.20;67.70
42841;DHT22;28491;46.898;7.660;2023-05-07T05:28:23;11.20;67.90
42841;DHT22;28491;46.898;7.660;2023-05-07T05:30:49;11.40;69.20
42841;DHT22;28491;46.898;7.660;2023-05-07T05:33:15;11.60;68.40
42841;DHT22;28491;46.898;7.660;2023-05-07T05:35:41;11.90;65.40
42841;DHT22;28491;46.898;7.660;2023-05-07T05:38:06;12.20;63.60
42841;DHT22;28491;46.898;7.660;2023-05-07T05:40:32;12.30;62.60
42841;DHT22;28491;46.898;7.660;2023-05-07T05:42:58;12.40;61.80
42841;DHT22;28491;46.898;7.660;2023-05-07T05:45:24;12.40;61.50
42841;DHT22;28491;46.898;7.660;2023-05-07T05:47:50;12.50;61.60
42841;DHT22;28491;46.898;7.660;2023-05-07T05:50:15;12.50;61.20
42841;DHT22;28491;46.898;7.660;2023-05-07T05:52:41;12.40;61.10
42841;DHT22;28491;46.898;7.660;2023-05-07T05:55:07;12.40;62.60
42841;DHT22;28491;46.898;7.660;2023-05-07T05:57:33;12.40;63.20
42841;DHT22;28491;46.898;7.660;2023-05-07T06:00:00;12.60;63.60
42841;DHT22;28491;46.898;7.660;2023-05-07T06:02:26;12.70;62.40
42841;DHT22;28491;46.898;7.660;2023-05-07T06:04:51;13.00;63.60
42841;DHT22;28491;46.898;7.660;2023-05-07T06:07:17;13.20;61.40
42841;DHT22;28491;46.898;7.660;2023-05-07T06:09:42;13.50;60.50
42841;DHT22;28491;46.898;7.660;2023-05-07T06:12:08;13.70;58.20
42841;DHT22;28491;46.898;7.660;2023-05-07T06:14:33;13.80;48.90
42841;DHT22;28491;46.898;7.660;2023-05-07T06:16:59;13.90;45.90
42841;DHT22;28491;46.898;7.660;2023-05-07T06:19:24;13.90;29.40
42841;DHT22;28491;46.898;7.660;2023-05-07T06:21:51;14.20;27.70
42841;DHT22;28491;46.898;7.660;2023-05-07T06:24:17;14.40;38.90
42841;DHT22;28491;46.898;7.660;2023-05-07T06:26:43;14.80;28.50
42841;DHT22;28491;46.898;7.660;2023-05-07T06:29:08;15.00;26.10
42841;DHT22;28491;46.898;7.660;2023-05-07T06:31:34;15.40;16.00
42841;DHT22;28491;46.898;7.660;2023-05-07T06:33:59;15.90;9.50
42841;DHT22;28491;46.898;7.660;2023-05-07T06:36:27;16.00;1.20
42841;DHT22;28491;46.898;7.660;2023-05-07T06:38:53;16.30;10.00
42841;DHT22;28491;46.898;7.660;2023-05-07T06:41:18;16.50;1.00
42841;DHT22;28491;46.898;7.660;2023-05-07T06:43:44;16.30;1.00
42841;DHT22;28491;46.898;7.660;2023-05-07T06:46:09;16.00;1.00
42841;DHT22;28491;46.898;7.660;2023-05-07T06:48:35;15.90;2.50
42841;DHT22;28491;46.898;7.660;2023-05-07T06:51:00;15.90;6.40
42841;DHT22;28491;46.898;7.660;2023-05-07T06:53:26;16.10;5.40
42841;DHT22;28491;46.898;7.660;2023-05-07T06:55:51;16.30;5.50
42841;DHT22;28491;46.898;7.660;2023-05-07T06:58:17;17.00;9.00
42841;DHT22;28491;46.898;7.660;2023-05-07T07:00:43;17.70;1.00
42841;DHT22;28491;46.898;7.660;2023-05-07T07:03:08;18.10;1.00
42841;DHT22;28491;46.898;7.660;2023-05-07T07:05:34;18.50;1.00
42841;DHT22;28491;46.898;7.660;2023-05-07T07:07:59;19.30;1.00
42841;DHT22;28491;46.898;7.660;2023-05-07T07:10:25;19.80;1.00
42841;DHT22;28491;46.898;7.660;2023-05-07T07:12:50;19.80;1.00
42841;DHT22;28491;46.898;7.660;2023-05-07T07:15:19;20.50;1.00
42841;DHT22;28491;46.898;7.660;2023-05-07T07:17:46;20.60;1.00
42841;DHT22;28491;46.898;7.660;2023-05-07T07:20:11;20.80;1.00
42841;DHT22;28491;46.898;7.660;2023-05-07T07:22:37;21.50;1.00
42841;DHT22;28491;46.898;7.660;2023-05-07T07:25:03;21.50;1.00
42841;DHT22;28491;46.898;7.660;2023-05-07T07:27:28;20.90;1.00
42841;DHT22;28491;46.898;7.660;2023-05-07T07:29:54;20.70;1.00
42841;DHT22;28491;46.898;7.660;2023-05-07T07:32:19;20.60;1.00
42841;DHT22;28491;46.898;7.660;2023-05-07T07:34:45;20.20;1.00
42841;DHT22;28491;46.898;7.660;2023-05-07T07:37:10;20.00;1.00
42841;DHT22;28491;46.898;7.660;2023-05-07T07:39:36;19.80;1.00
42841;DHT22;28491;46.898;7.660;2023-05-07T07:42:03;19.30;1.00
42841;DHT22;28491;46.898;7.660;2023-05-07T07:44:28;19.10;1.00
42841;DHT22;28491;46.898;7.660;2023-05-07T07:46:54;18.80;1.00
42841;DHT22;28491;46.898;7.660;2023-05-07T07:49:19;18.60;1.00
42841;DHT22;28491;46.898;7.660;2023-05-07T07:51:45;18.30;1.00
42841;DHT22;28491;46.898;7.660;2023-05-07T07:54:10;18.10;1.00
42841;DHT22;28491;46.898;7.660;2023-05-07T07:56:36;17.90;1.00
42841;DHT22;28491;46.898;7.660;2023-05-07T07:59:02;17.80;1.00
42841;DHT22;28491;46.898;7.660;2023-05-07T08:01:30;17.70;1.00
42841;DHT22;28491;46.898;7.660;2023-05-07T08:03:56;17.70;1.00
42841;DHT22;28491;46.898;7.660;2023-05-07T08:06:24;17.60;1.00
42841;DHT22;28491;46.898;7.660;2023-05-07T08:08:49;17.40;1.00
42841;DHT22;28491;46.898;7.660;2023-05-07T08:11:15;17.30;1.00
42841;DHT22;28491;46.898;7.660;2023-05-07T08:13:40;17.30;1.00
42841;DHT22;28491;46.898;7.660;2023-05-07T08:16:06;17.50;1.00
42841;DHT22;28491;46.898;7.660;2023-05-07T08:18:31;17.50;1.00
42841;DHT22;28491;46.898;7.660;2023-05-07T08:20:57;17.60;1.00
42841;DHT22;28491;46.898;7.660;2023-05-07T08:23:23;17.60;1.00
42841;DHT22;28491;46.898;7.660;2023-05-07T08:25:49;17.80;1.00
42841;DHT22;28491;46.898;7.660;2023-05-07T08:28:14;17.90;1.00
42841;DHT22;28491;46.898;7.660;2023-05-07T08:30:40;18.20;1.00
42841;DHT22;28491;46.898;7.660;2023-05-07T08:33:06;18.50;1.00
42841;DHT22;28491;46.898;7.660;2023-05-07T08:35:31;18.70;1.00
42841;DHT22;28491;46.898;7.660;2023-05-07T08:37:57;18.80;1.00
42841;DHT22;28491;46.898;7.660;2023-05-07T08:40:25;18.80;1.00
42841;DHT22;28491;46.898;7.660;2023-05-07T08:42:52;19.00;1.00
42841;DHT22;28491;46.898;7.660;2023-05-07T08:45:19;19.30;1.00
42841;DHT22;28491;46.898;7.660;2023-05-07T08:47:47;19.70;1.00
42841;DHT22;28491;46.898;7.660;2023-05-07T08:50:16;20.00;1.00
42841;DHT22;28491;46.898;7.660;2023-05-07T08:52:41;20.10;1.00
42841;DHT22;28491;46.898;7.660;2023-05-07T08:55:08;20.10;1.00
42841;DHT22;28491;46.898;7.660;2023-05-07T08:57:34;20.20;1.00
42841;DHT22;28491;46.898;7.660;2023-05-07T09:00:00;20.30;1.00
42841;DHT22;28491;46.898;7.660;2023-05-07T09:02:25;20.30;1.00
42841;DHT22;28491;46.898;7.660;2023-05-07T09:04:51;20.20;1.00
42841;DHT22;28491;46.898;7.660;2023-05-07T09:07:19;20.30;1.00
42841;DHT22;28491;46.898;7.660;2023-05-07T09:09:44;20.30;1.00
42841;DHT22;28491;46.898;7.660;2023-05-07T09:12:10;20.40;1.00
42841;DHT22;28491;46.898;7.660;2023-05-07T09:14:36;20.60;1.00
42841;DHT22;28491;46.898;7.660;2023-05-07T09:17:01;20.70;1.00
42841;DHT22;28491;46.898;7.660;2023-05-07T09:19:27;20.70;1.00
42841;DHT22;28491;46.898;7.660;2023-05-07T09:22:00;20.80;1.00
42841;DHT22;28491;46.898;7.660;2023-05-07T09:24:26;21.00;1.00
42841;DHT22;28491;46.898;7.660;2023-05-07T09:26:54;21.20;1.00
42841;DHT22;28491;46.898;7.660;2023-05-07T09:29:20;21.50;1.00
42841;DHT22;28491;46.898;7.660;2023-05-07T09:31:46;21.80;1.00
42841;DHT22;28491;46.898;7.660;2023-05-07T09:34:11;21.80;1.00
42841;DHT22;28491;46.898;7.660;2023-05-07T09:36:37;21.80;1.00
42841;DHT22;28491;46.898;7.660;2023-05-07T09:39:03;21.70;1.00
42841;DHT22;28491;46.898;7.660;2023-05-07T09:41:30;21.70;1.00
42841;DHT22;28491;46.898;7.660;2023-05-07T09:43:56;21.40;1.00
42841;DHT22;28491;46.898;7.660;2023-05-07T09:46:30;21.30;1.00
42841;DHT22;28491;46.898;7.660;2023-05-07T09:48:58;21.20;1.00
42841;DHT22;28491;46.898;7.660;2023-05-07T09:51:25;21.20;1.00
42841;DHT22;28491;46.898;7.660;2023-05-07T09:53:53;21.30;1.00
42841;DHT22;28491;46.898;7.660;2023-05-07T09:56:19;21.50;1.00
42841;DHT22;28491;46.898;7.660;2023-05-07T09:58:45;21.60;1.00
42841;DHT22;28491;46.898;7.660;2023-05-07T10:01:12;21.50;1.00
42841;DHT22;28491;46.898;7.660;2023-05-07T10:03:40;21.50;1.00
42841;DHT22;28491;46.898;7.660;2023-05-07T10:06:08;21.30;1.00
42841;DHT22;28491;46.898;7.660;2023-05-07T10:08:35;21.30;1.00
42841;DHT22;28491;46.898;7.660;2023-05-07T10:11:01;21.30;1.00
42841;DHT22;28491;46.898;7.660;2023-05-07T10:13:27;21.40;1.00
42841;DHT22;28491;46.898;7.660;2023-05-07T10:15:52;21.40;1.00
42841;DHT22;28491;46.898;7.660;2023-05-07T10:18:20;21.50;1.00
42841;DHT22;28491;46.898;7.660;2023-05-07T10:20:51;21.70;1.00
42841;DHT22;28491;46.898;7.660;2023-05-07T10:23:23;21.60;1.00
42841;DHT22;28491;46.898;7.660;2023-05-07T10:25:49;21.80;1.00
42841;DHT22;28491;46.898;7.660;2023-05-07T10:28:15;21.80;1.00
42841;DHT22;28491;46.898;7.660;2023-05-07T10:31:02;21.70;1.00
42841;DHT22;28491;46.898;7.660;2023-05-07T10:33:31;21.60;1.00
42841;DHT22;28491;46.898;7.660;2023-05-07T10:35:59;21.60;1.00
42841;DHT22;28491;46.898;7.660;2023-05-07T10:38:27;21.60;1.00
42841;DHT22;28491;46.898;7.660;2023-05-07T10:40:53;21.40;1.00
42841;DHT22;28491;46.898;7.660;2023-05-07T10:43:18;21.40;1.00
42841;DHT22;28491;46.898;7.660;2023-05-07T10:46:17;21.20;1.00
42841;DHT22;28491;46.898;7.660;2023-05-07T10:51:29;20.90;1.00
42841;DHT22;28491;46.898;7.660;2023-05-07T10:56:40;20.60;1.00
42841;DHT22;28491;46.898;7.660;2023-05-07T10:59:30;20.60;1.00
42841;DHT22;28491;46.898;7.660;2023-05-07T11:01:57;20.70;1.00
42841;DHT22;28491;46.898;7.660;2023-05-07T11:04:24;21.00;1.00
42841;DHT22;28491;46.898;7.660;2023-05-07T11:07:25;21.40;1.00
42841;DHT22;28491;46.898;7.660;2023-05-07T11:15:09;21.20;1.00
42841;DHT22;28491;46.898;7.660;2023-05-07T11:20:20;21.40;1.00
42841;DHT22;28491;46.898;7.660;2023-05-07T11:22:46;21.40;1.00
42841;DHT22;28491;46.898;7.660;2023-05-07T11:25:17;21.20;1.00
42841;DHT22;28491;46.898;7.660;2023-05-07T11:27:44;21.30;1.00
42841;DHT22;28491;46.898;7.660;2023-05-07T11:30:10;21.00;1.00
42841;DHT22;28491;46.898;7.660;2023-05-07T11:32:36;20.90;1.00
42841;DHT22;28491;46.898;7.660;2023-05-07T11:35:02;20.80;1.00
42841;DHT22;28491;46.898;7.660;2023-05-07T11:37:28;20.70;1.00
42841;DHT22;28491;46.898;7.660;2023-05-07T11:40:05;20.50;1.00
42841;DHT22;28491;46.898;7.660;2023-05-07T11:42:35;20.50;1.00
42841;DHT22;28491;46.898;7.660;2023-05-07T11:45:02;20.50;1.00
42841;DHT22;28491;46.898;7.660;2023-05-07T11:47:30;20.40;1.00
42841;DHT22;28491;46.898;7.660;2023-05-07T11:49:56;20.30;1.00
42841;DHT22;28491;46.898;7.660;2023-05-07T11:52:23;20.30;1.00
42841;DHT22;28491;46.898;7.660;2023-05-07T11:54:50;20.10;1.00
42841;DHT22;28491;46.898;7.660;2023-05-07T11:57:16;20.00;1.60
42841;DHT22;28491;46.898;7.660;2023-05-07T11:59:42;20.00;1.90
42841;DHT22;28491;46.898;7.660;2023-05-07T12:02:14;20.10;1.00
42841;DHT22;28491;46.898;7.660;2023-05-07T12:04:40;20.20;1.00
42841;DHT22;28491;46.898;7.660;2023-05-07T12:07:14;20.00;1.00
42841;DHT22;28491;46.898;7.660;2023-05-07T12:09:41;20.00;1.00
42841;DHT22;28491;46.898;7.660;2023-05-07T12:12:07;20.10;1.00
42841;DHT22;28491;46.898;7.660;2023-05-07T12:14:33;20.10;1.00
42841;DHT22;28491;46.898;7.660;2023-05-07T12:17:04;20.30;1.00
42841;DHT22;28491;46.898;7.660;2023-05-07T12:19:31;20.50;1.00
42841;DHT22;28491;46.898;7.660;2023-05-07T12:21:57;21.00;1.00
42841;DHT22;28491;46.898;7.660;2023-05-07T12:24:22;21.40;1.00
42841;DHT22;28491;46.898;7.660;2023-05-07T12:26:48;21.10;1.00
42841;DHT22;28491;46.898;7.660;2023-05-07T12:29:14;21.10;1.00
42841;DHT22;28491;46.898;7.660;2023-05-07T12:31:41;21.30;1.00
42841;DHT22;28491;46.898;7.660;2023-05-07T12:34:07;21.00;1.00
42841;DHT22;28491;46.898;7.660;2023-05-07T12:36:39;20.50;1.00
42841;DHT22;28491;46.898;7.660;2023-05-07T12:39:08;20.30;1.00
42841;DHT22;28491;46.898;7.660;2023-05-07T12:41:54;20.30;1.00
42841;DHT22;28491;46.898;7.660;2023-05-07T12:44:23;20.50;1.00
42841;DHT22;28491;46.898;7.660;2023-05-07T12:46:49;20.60;1.00
42841;DHT22;28491;46.898;7.660;2023-05-07T12:49:15;20.70;1.00
42841;DHT22;28491;46.898;7.660;2023-05-07T12:51:40;20.80;1.00
42841;DHT22;28491;46.898;7.660;2023-05-07T12:54:06;20.90;1.00
42841;DHT22;28491;46.898;7.660;2023-05-07T12:56:31;20.80;1.00
42841;DHT22;28491;46.898;7.660;2023-05-07T12:58:58;20.80;1.00
42841;DHT22;28491;46.898;7.660;2023-05-07T13:01:29;20.60;1.00
42841;DHT22;28491;46.898;7.660;2023-05-07T13:03:55;20.50;1.00
42841;DHT22;28491;46.898;7.660;2023-05-07T13:06:20;20.50;1.00
42841;DHT22;28491;46.898;7.660;2023-05-07T13:08:46;20.50;1.00
42841;DHT22;28491;46.898;7.660;2023-05-07T13:11:12;20.30;1.00
42841;DHT22;28491;46.898;7.660;2023-05-07T13:13:41;20.20;1.00
42841;DHT22;28491;46.898;7.660;2023-05-07T13:16:09;20.00;2.10
42841;DHT22;28491;46.898;7.660;2023-05-07T13:18:35;19.70;12.60
42841;DHT22;28491;46.898;7.660;2023-05-07T13:21:01;19.40;22.90
42841;DHT22;28491;46.898;7.660;2023-05-07T13:23:27;19.20;30.70
42841;DHT22;28491;46.898;7.660;2023-05-07T13:25:53;19.00;27.20
42841;DHT22;28491;46.898;7.660;2023-05-07T13:28:20;18.90;25.70
42841;DHT22;28491;46.898;7.660;2023-05-07T13:30:46;18.70;21.50
42841;DHT22;28491;46.898;7.660;2023-05-07T13:33:12;18.60;33.40
42841;DHT22;28491;46.898;7.660;2023-05-07T13:35:37;18.40;44.20
42841;DHT22;28491;46.898;7.660;2023-05-07T13:38:04;18.20;49.40
42841;DHT22;28491;46.898;7.660;2023-05-07T13:40:30;17.90;46.90
42841;DHT22;28491;46.898;7.660;2023-05-07T13:42:57;17.70;42.60
42841;DHT22;28491;46.898;7.660;2023-05-07T13:45:24;17.50;43.20
42841;DHT22;28491;46.898;7.660;2023-05-07T13:47:51;17.30;55.60
42841;DHT22;28491;46.898;7.660;2023-05-07T13:50:16;17.30;57.60
42841;DHT22;28491;46.898;7.660;2023-05-07T13:52:43;17.30;60.90
42841;DHT22;28491;46.898;7.660;2023-05-07T13:55:12;17.30;60.40
42841;DHT22;28491;46.898;7.660;2023-05-07T13:57:38;17.20;60.40
42841;DHT22;28491;46.898;7.660;2023-05-07T14:00:05;17.20;60.40
42841;DHT22;28491;46.898;7.660;2023-05-07T14:02:31;17.20;60.80
42841;DHT22;28491;46.898;7.660;2023-05-07T14:04:57;17.10;61.20
42841;DHT22;28491;46.898;7.660;2023-05-07T14:07:22;17.00;56.90
42841;DHT22;28491;46.898;7.660;2023-05-07T14:09:48;17.00;61.30
42841;DHT22;28491;46.898;7.660;2023-05-07T14:12:13;16.80;63.90
42841;DHT22;28491;46.898;7.660;2023-05-07T14:14:39;16.70;65.80
42841;DHT22;28491;46.898;7.660;2023-05-07T14:17:04;16.70;68.20
42841;DHT22;28491;46.898;7.660;2023-05-07T14:19:30;16.70;69.50
42841;DHT22;28491;46.898;7.660;2023-05-07T14:21:55;16.50;71.00
42841;DHT22;28491;46.898;7.660;2023-05-07T14:24:21;16.30;73.90
42841;DHT22;28491;46.898;7.660;2023-05-07T14:26:46;16.30;75.80
42841;DHT22;28491;46.898;7.660;2023-05-07T14:29:12;16.20;74.00
42841;DHT22;28491;46.898;7.660;2023-05-07T14:31:38;16.10;72.70
42841;DHT22;28491;46.898;7.660;2023-05-07T14:34:03;16.20;72.50
42841;DHT22;28491;46.898;7.660;2023-05-07T14:36:29;15.90;67.10
42841;DHT22;28491;46.898;7.660;2023-05-07T14:38:57;15.90;69.00
42841;DHT22;28491;46.898;7.660;2023-05-07T14:41:24;15.90;69.70
42841;DHT22;28491;46.898;7.660;2023-05-07T14:43:50;15.80;69.90
42841;DHT22;28491;46.898;7.660;2023-05-07T14:46:18;15.70;68.80
42841;DHT22;28491;46.898;7.660;2023-05-07T14:48:44;15.60;72.00
42841;DHT22;28491;46.898;7.660;2023-05-07T14:51:11;15.60;75.70
42841;DHT22;28491;46.898;7.660;2023-05-07T14:53:37;15.50;76.00
42841;DHT22;28491;46.898;7.660;2023-05-07T14:56:03;15.50;78.70
42841;DHT22;28491;46.898;7.660;2023-05-07T14:58:28;15.50;81.70
42841;DHT22;28491;46.898;7.660;2023-05-07T15:00:54;15.50;81.80
42841;DHT22;28491;46.898;7.660;2023-05-07T15:03:19;15.50;86.70
42841;DHT22;28491;46.898;7.660;2023-05-07T15:05:45;15.50;88.30
42841;DHT22;28491;46.898;7.660;2023-05-07T15:08:11;15.50;78.70
42841;DHT22;28491;46.898;7.660;2023-05-07T15:10:37;15.50;83.40
42841;DHT22;28491;46.898;7.660;2023-05-07T15:13:07;15.40;84.80
42841;DHT22;28491;46.898;7.660;2023-05-07T15:15:34;15.50;92.50
42841;DHT22;28491;46.898;7.660;2023-05-07T15:17:59;15.30;84.50
42841;DHT22;28491;46.898;7.660;2023-05-07T15:20:26;15.40;86.40
42841;DHT22;28491;46.898;7.660;2023-05-07T15:22:51;15.30;74.00
42841;DHT22;28491;46.898;7.660;2023-05-07T15:25:17;15.40;85.60
42841;DHT22;28491;46.898;7.660;2023-05-07T15:27:42;15.30;86.00
42841;DHT22;28491;46.898;7.660;2023-05-07T15:30:08;15.30;81.60
42841;DHT22;28491;46.898;7.660;2023-05-07T15:32:35;15.10;76.20
42841;DHT22;28491;46.898;7.660;2023-05-07T15:35:01;15.10;75.20
42841;DHT22;28491;46.898;7.660;2023-05-07T15:37:27;15.10;74.10
42841;DHT22;28491;46.898;7.660;2023-05-07T15:39:52;15.00;81.00
42841;DHT22;28491;46.898;7.660;2023-05-07T15:42:18;15.00;76.40
42841;DHT22;28491;46.898;7.660;2023-05-07T15:44:43;15.10;85.60
42841;DHT22;28491;46.898;7.660;2023-05-07T15:47:09;15.10;88.20